createdAt,value
2023-02-16T00:01:27.995Z,15.70
2023-02-16T00:03:56.019Z,17.37
2023-02-16T00:06:23.913Z,15.80
2023-02-16T00:08:52.996Z,14.87
2023-02-16T00:12:05.061Z,16.13
2023-02-16T00:14:34.892Z,15.93
2023-02-16T00:17:01.900Z,15.70
2023-02-16T00:19:31.240Z,18.43
2023-02-16T00:21:59.882Z,18.33
2023-02-16T00:24:28.326Z,16.53
2023-02-16T00:26:55.790Z,18.73
2023-02-16T00:29:26.997Z,16.40
2023-02-16T00:31:55.295Z,17.17
2023-02-16T00:34:40.213Z,18.17
2023-02-16T00:37:09.188Z,15.20
2023-02-16T00:39:37.001Z,15.37
2023-02-16T00:42:13.393Z,16.40
2023-02-16T00:44:45.944Z,16.80
2023-02-16T00:47:20.583Z,17.47
2023-02-16T00:49:49.559Z,17.47
2023-02-16T00:52:37.521Z,17.33
2023-02-16T00:55:10.009Z,21.03
2023-02-16T00:57:40.673Z,16.83
2023-02-16T01:00:30.024Z,17.47
2023-02-16T01:02:59.966Z,17.83
2023-02-16T01:05:27.697Z,16.57
2023-02-16T01:08:13.396Z,17.03
2023-02-16T01:10:59.041Z,17.27
2023-02-16T01:13:28.356Z,19.87
2023-02-16T01:15:55.232Z,17.80
2023-02-16T01:18:22.161Z,17.77
2023-02-16T01:20:51.134Z,17.30
2023-02-16T01:23:17.725Z,17.27
2023-02-16T01:25:44.490Z,18.93
2023-02-16T01:28:21.096Z,20.50
2023-02-16T01:30:49.245Z,21.73
2023-02-16T01:33:16.008Z,18.67
2023-02-16T01:35:42.812Z,21.00
2023-02-16T01:38:21.014Z,23.20
2023-02-16T01:41:22.557Z,22.37
2023-02-16T01:43:55.061Z,20.77
2023-02-16T01:46:48.074Z,20.77
2023-02-16T01:49:16.164Z,21.87
2023-02-16T01:51:49.265Z,22.30
2023-02-16T01:54:38.803Z,23.17
2023-02-16T01:57:20.990Z,20.17
2023-02-16T01:59:47.549Z,20.33
2023-02-16T02:02:23.903Z,19.73
2023-02-16T02:05:13.468Z,23.23
2023-02-16T02:08:06.052Z,24.57
2023-02-16T02:11:03.245Z,27.03
2023-02-16T02:13:53.001Z,22.63
2023-02-16T02:16:24.043Z,22.03
2023-02-16T02:18:50.805Z,24.87
2023-02-16T02:22:15.477Z,25.57
2023-02-16T02:25:16.692Z,22.07
2023-02-16T02:28:01.104Z,23.57
2023-02-16T02:30:46.455Z,27.83
2023-02-16T02:33:32.459Z,27.67
2023-02-16T02:36:19.806Z,26.33
2023-02-16T02:39:20.664Z,24.60
2023-02-16T02:42:06.292Z,23.23
2023-02-16T02:44:46.157Z,28.23
2023-02-16T02:47:12.946Z,25.43
2023-02-16T02:49:39.700Z,29.60
2023-02-16T02:52:09.393Z,24.97
2023-02-16T02:54:59.262Z,24.90
2023-02-16T02:58:01.868Z,28.73
2023-02-16T03:00:41.419Z,30.17
2023-02-16T03:03:32.280Z,26.23
2023-02-16T03:06:15.292Z,29.10
2023-02-16T03:08:44.618Z,31.17
2023-02-16T03:11:35.576Z,33.37
2023-02-16T03:14:06.637Z,32.67
2023-02-16T03:16:42.568Z,25.17
2023-02-16T03:19:30.535Z,27.20
2023-02-16T03:22:16.494Z,27.93
2023-02-16T03:25:02.081Z,31.60
2023-02-16T03:27:56.789Z,28.90
2023-02-16T03:30:25.532Z,23.97
2023-02-16T03:32:52.894Z,24.83
2023-02-16T03:35:20.051Z,26.70
2023-02-16T03:37:47.527Z,27.67
2023-02-16T03:40:28.221Z,26.70
2023-02-16T03:43:01.801Z,28.27
2023-02-16T03:45:29.283Z,27.63
2023-02-16T03:47:56.054Z,28.20
2023-02-16T03:50:22.832Z,26.57
2023-02-16T03:52:49.709Z,28.67
2023-02-16T03:55:16.443Z,28.77
2023-02-16T03:57:43.097Z,25.53
2023-02-16T04:00:10.853Z,29.00
2023-02-16T04:02:40.349Z,27.37
2023-02-16T04:05:07.127Z,27.40
2023-02-16T04:07:33.704Z,27.50
2023-02-16T04:10:00.310Z,32.97
2023-02-16T04:12:36.113Z,34.10
2023-02-16T04:15:05.340Z,29.43
2023-02-16T04:17:32.058Z,33.60
2023-02-16T04:19:58.674Z,30.10
2023-02-16T04:22:25.377Z,30.60
2023-02-16T04:24:52.001Z,35.47
2023-02-16T04:27:18.715Z,32.50
2023-02-16T04:29:45.393Z,33.00
2023-02-16T04:32:12.301Z,29.80
2023-02-16T04:34:38.974Z,31.93
2023-02-16T04:37:05.859Z,31.07
2023-02-16T04:39:32.877Z,30.90
2023-02-16T04:41:59.534Z,31.30
2023-02-16T04:44:26.180Z,29.93
2023-02-16T04:46:52.838Z,30.30
2023-02-16T04:49:19.440Z,31.43
2023-02-16T04:51:46.147Z,33.33
2023-02-16T04:54:12.807Z,33.33
2023-02-16T04:56:39.489Z,33.83
2023-02-16T04:59:06.089Z,32.97
2023-02-16T05:01:32.691Z,32.60
2023-02-16T05:03:59.319Z,31.60
2023-02-16T05:06:25.961Z,28.63
2023-02-16T05:08:52.592Z,32.50
2023-02-16T05:11:37.666Z,30.60
2023-02-16T05:14:23.185Z,31.73
2023-02-16T05:16:49.854Z,31.33
2023-02-16T05:19:18.539Z,34.27
2023-02-16T05:21:45.169Z,33.53
2023-02-16T05:24:12.153Z,30.47
2023-02-16T05:26:40.169Z,32.50
2023-02-16T05:29:07.072Z,33.47
2023-02-16T05:31:33.816Z,31.90
2023-02-16T05:34:00.472Z,32.93
2023-02-16T05:36:27.244Z,31.10
2023-02-16T05:38:53.891Z,33.07
2023-02-16T05:41:23.404Z,31.33
2023-02-16T05:43:58.774Z,34.60
2023-02-16T05:46:27.021Z,33.63
2023-02-16T05:48:54.251Z,34.03
2023-02-16T05:51:21.591Z,34.17
2023-02-16T05:53:48.586Z,34.03
2023-02-16T05:56:15.632Z,34.83
2023-02-16T05:58:42.376Z,33.87
2023-02-16T06:01:09.139Z,31.07
2023-02-16T06:03:36.340Z,34.37
2023-02-16T06:06:04.625Z,38.30
2023-02-16T06:08:32.541Z,37.53
2023-02-16T06:10:59.382Z,35.63
2023-02-16T06:13:26.650Z,31.77
2023-02-16T06:15:57.390Z,33.00
2023-02-16T06:18:24.899Z,34.03
2023-02-16T06:20:52.094Z,37.43
2023-02-16T06:23:18.782Z,36.47
2023-02-16T06:25:49.411Z,36.30
2023-02-16T06:28:16.017Z,34.07
2023-02-16T06:30:42.775Z,35.57
2023-02-16T06:33:09.557Z,34.03
2023-02-16T06:35:36.144Z,37.47
2023-02-16T06:38:02.785Z,41.00
2023-02-16T06:40:29.494Z,40.87
2023-02-16T06:42:56.138Z,39.17
2023-02-16T06:45:22.719Z,38.63
2023-02-16T06:47:49.406Z,34.93
2023-02-16T06:50:17.597Z,36.17
2023-02-16T06:52:44.275Z,37.73
2023-02-16T06:55:10.967Z,35.37
2023-02-16T06:57:37.624Z,37.70
2023-02-16T07:00:07.120Z,39.47
2023-02-16T07:02:34.247Z,41.27
2023-02-16T07:05:01.254Z,36.70
2023-02-16T07:07:27.931Z,39.37
2023-02-16T07:09:54.635Z,40.27
2023-02-16T07:12:21.293Z,36.37
2023-02-16T07:14:48.118Z,39.47
2023-02-16T07:17:14.871Z,40.33
2023-02-16T07:19:41.763Z,38.83
2023-02-16T07:22:08.333Z,38.53
2023-02-16T07:24:34.989Z,39.83
2023-02-16T07:27:01.664Z,40.50
2023-02-16T07:29:28.530Z,39.67
2023-02-16T07:31:56.461Z,46.17
2023-02-16T07:34:23.548Z,41.00
2023-02-16T07:36:50.210Z,41.37
2023-02-16T07:39:16.868Z,44.60
2023-02-16T07:41:43.536Z,45.27
2023-02-16T07:44:10.214Z,42.40
2023-02-16T07:46:36.874Z,43.20
2023-02-16T07:49:03.705Z,41.13
2023-02-16T07:51:31.605Z,44.97
2023-02-16T07:53:59.811Z,43.20
2023-02-16T07:56:28.962Z,42.73
2023-02-16T07:58:57.206Z,44.13
2023-02-16T08:01:24.940Z,40.47
2023-02-16T08:03:52.323Z,38.53
2023-02-16T08:06:19.477Z,41.40
2023-02-16T08:08:46.549Z,42.27
2023-02-16T08:11:18.822Z,43.50
2023-02-16T08:13:46.120Z,41.07
2023-02-16T08:16:18.264Z,40.83
2023-02-16T08:18:45.217Z,38.83
2023-02-16T08:21:17.665Z,42.30
2023-02-16T08:23:49.546Z,40.67
2023-02-16T08:26:17.850Z,43.27
2023-02-16T08:28:46.061Z,39.07
2023-02-16T08:31:20.911Z,40.73
2023-02-16T08:33:48.120Z,41.20
2023-02-16T08:36:23.479Z,41.73
2023-02-16T08:38:52.047Z,42.33
2023-02-16T08:41:20.488Z,37.70
2023-02-16T08:43:48.145Z,37.30
2023-02-16T08:46:15.946Z,41.00
2023-02-16T08:48:45.059Z,42.07
2023-02-16T08:51:19.486Z,40.03
2023-02-16T08:53:46.573Z,38.33
2023-02-16T08:56:14.634Z,37.17
2023-02-16T08:58:41.332Z,37.93
2023-02-16T09:01:08.795Z,37.37
2023-02-16T09:03:37.158Z,39.73
2023-02-16T09:06:05.948Z,36.83
2023-02-16T09:08:32.986Z,37.07
2023-02-16T09:11:07.688Z,39.07
2023-02-16T09:13:35.724Z,33.50
2023-02-16T09:16:08.086Z,40.67
2023-02-16T09:18:36.706Z,37.97
2023-02-16T09:21:06.709Z,38.07
2023-02-16T09:23:37.916Z,38.03
2023-02-16T09:26:08.036Z,35.10
2023-02-16T09:28:36.130Z,35.63
2023-02-16T09:31:10.082Z,36.87
2023-02-16T09:33:37.354Z,35.03
2023-02-16T09:36:06.933Z,37.40
2023-02-16T09:38:34.129Z,37.97
2023-02-16T09:41:48.452Z,35.53
2023-02-16T09:44:43.527Z,36.63
2023-02-16T09:47:24.469Z,37.57
2023-02-16T09:49:53.745Z,39.27
2023-02-16T09:52:36.280Z,33.90
2023-02-16T09:55:10.517Z,37.53
2023-02-16T09:57:46.389Z,39.73
2023-02-16T10:00:33.597Z,36.07
2023-02-16T10:03:32.157Z,39.67
2023-02-16T10:06:14.467Z,32.60
2023-02-16T10:08:46.836Z,37.80
2023-02-16T10:11:42.034Z,36.40
2023-02-16T10:14:13.547Z,38.83
2023-02-16T10:16:46.665Z,36.23
2023-02-16T10:19:35.301Z,36.00
2023-02-16T10:22:08.328Z,39.80
2023-02-16T10:24:49.720Z,39.87
2023-02-16T10:27:16.960Z,39.53
2023-02-16T10:29:43.813Z,40.90
2023-02-16T10:32:35.449Z,39.60
2023-02-16T10:35:13.575Z,37.00
2023-02-16T10:38:03.649Z,39.80
2023-02-16T10:40:45.308Z,34.13
2023-02-16T10:43:19.104Z,34.67
2023-02-16T10:45:54.869Z,36.70
2023-02-16T10:48:23.588Z,36.40
2023-02-16T10:51:12.586Z,36.33
2023-02-16T10:53:53.245Z,36.33
2023-02-16T10:56:25.522Z,39.40
2023-02-16T10:58:52.723Z,37.87
2023-02-16T11:01:21.765Z,38.60
2023-02-16T11:03:51.883Z,37.53
2023-02-16T11:06:25.460Z,37.63
2023-02-16T11:08:59.214Z,36.80
2023-02-16T11:11:28.274Z,37.63
2023-02-16T11:14:03.274Z,37.03
2023-02-16T11:16:30.330Z,39.00
2023-02-16T11:19:05.844Z,37.83
2023-02-16T11:21:46.127Z,37.87
2023-02-16T11:24:28.591Z,35.90
2023-02-16T11:27:06.750Z,40.27
2023-02-16T11:29:34.308Z,37.77
2023-02-16T11:32:09.237Z,40.10
2023-02-16T11:34:42.479Z,35.37
2023-02-16T11:37:28.549Z,39.23
2023-02-16T11:39:58.892Z,40.20
2023-02-16T11:42:44.121Z,41.30
2023-02-16T11:45:22.698Z,40.33
2023-02-16T11:47:56.562Z,39.13
2023-02-16T11:50:32.010Z,42.73
2023-02-16T11:53:16.323Z,43.20
2023-02-16T11:55:48.498Z,39.77
2023-02-16T11:58:27.380Z,39.03
2023-02-16T12:01:06.074Z,41.43
2023-02-16T12:04:09.703Z,41.90
2023-02-16T12:06:51.591Z,40.57
2023-02-16T12:09:48.720Z,42.23
2023-02-16T12:12:31.385Z,48.17
2023-02-16T12:15:25.944Z,43.57
2023-02-16T12:18:05.545Z,47.67
2023-02-16T12:21:10.918Z,47.77
2023-02-16T12:24:00.740Z,52.83
2023-02-16T12:26:46.604Z,51.17
2023-02-16T12:29:24.259Z,45.50
2023-02-16T12:32:23.820Z,52.13
2023-02-16T12:35:27.024Z,47.60
2023-02-16T12:38:25.335Z,56.17
2023-02-16T12:41:20.164Z,51.30
2023-02-16T12:44:02.870Z,54.90
2023-02-16T12:46:37.582Z,49.20
2023-02-16T12:49:13.200Z,49.60
2023-02-16T12:51:46.998Z,47.40
2023-02-16T12:54:16.431Z,52.47
2023-02-16T12:57:08.034Z,55.03
2023-02-16T12:59:41.706Z,54.33
2023-02-16T13:02:27.543Z,54.63
2023-02-16T13:05:08.621Z,51.03
2023-02-16T13:07:47.159Z,54.43
2023-02-16T13:10:20.368Z,55.63
2023-02-16T13:13:02.507Z,56.77
2023-02-16T13:15:36.992Z,53.00
2023-02-16T13:18:07.053Z,51.03
2023-02-16T13:20:33.790Z,53.50
2023-02-16T13:23:30.328Z,57.87
2023-02-16T13:26:34.716Z,54.07
2023-02-16T13:29:02.019Z,49.37
2023-02-16T13:31:54.511Z,40.93
2023-02-16T13:34:42.235Z,50.30
2023-02-16T13:37:30.306Z,47.03
2023-02-16T13:40:32.132Z,46.40
2023-02-16T13:43:19.288Z,49.13
2023-02-16T13:45:47.894Z,45.67
2023-02-16T13:48:22.427Z,43.90
2023-02-16T13:51:04.242Z,46.50
2023-02-16T13:53:39.129Z,45.10
2023-02-16T13:56:22.509Z,45.23
2023-02-16T13:58:52.047Z,46.10
2023-02-16T14:01:39.294Z,46.77
2023-02-16T14:04:26.199Z,47.73
2023-02-16T14:07:07.975Z,42.87
2023-02-16T14:09:37.722Z,42.07
2023-02-16T14:12:16.346Z,43.33
2023-02-16T14:14:43.005Z,46.07
2023-02-16T14:17:24.417Z,44.57
2023-02-16T14:20:24.797Z,44.47
2023-02-16T14:23:02.699Z,44.37
2023-02-16T14:25:33.873Z,44.17
2023-02-16T14:28:26.829Z,44.77
2023-02-16T14:30:56.185Z,35.37
2023-02-16T14:33:41.128Z,44.57
2023-02-16T14:36:16.591Z,42.77
2023-02-16T14:38:47.311Z,44.30
2023-02-16T14:41:23.050Z,41.73
2023-02-16T14:44:01.534Z,45.73
2023-02-16T14:46:55.767Z,42.40
2023-02-16T14:49:34.479Z,42.67
2023-02-16T14:52:42.882Z,43.77
2023-02-16T14:55:23.347Z,44.87
2023-02-16T14:58:15.912Z,45.73
2023-02-16T15:00:48.495Z,44.43
2023-02-16T15:03:21.602Z,40.10
2023-02-16T15:06:03.026Z,41.50
2023-02-16T15:08:36.166Z,43.70
2023-02-16T15:11:13.079Z,42.60
2023-02-16T15:13:40.355Z,40.80
2023-02-16T15:16:13.684Z,42.13
2023-02-16T15:18:46.292Z,40.13
2023-02-16T15:21:32.062Z,44.43
2023-02-16T15:24:01.580Z,43.83
2023-02-16T15:26:34.322Z,44.23
2023-02-16T15:29:19.647Z,39.10
2023-02-16T15:31:46.751Z,42.77
2023-02-16T15:34:26.233Z,41.53
2023-02-16T15:36:52.856Z,41.97
2023-02-16T15:39:41.309Z,43.07
2023-02-16T15:42:26.410Z,37.87
2023-02-16T15:44:53.231Z,40.30
2023-02-16T15:47:25.909Z,43.13
2023-02-16T15:49:54.048Z,42.90
2023-02-16T15:52:33.587Z,41.47
2023-02-16T15:55:02.463Z,39.73
2023-02-16T15:57:38.398Z,41.67
2023-02-16T16:00:19.311Z,44.07
2023-02-16T16:02:49.008Z,42.20
2023-02-16T16:05:28.523Z,40.10
2023-02-16T16:07:57.390Z,44.13
2023-02-16T16:10:36.438Z,44.40
2023-02-16T16:13:12.863Z,44.53
2023-02-16T16:15:46.490Z,44.00
2023-02-16T16:18:38.952Z,48.80
2023-02-16T16:21:24.863Z,45.67
2023-02-16T16:24:08.987Z,46.03
2023-02-16T16:26:52.993Z,46.57
2023-02-16T16:29:44.000Z,50.10
2023-02-16T16:32:21.228Z,52.10
2023-02-16T16:34:48.672Z,50.00
2023-02-16T16:37:35.574Z,53.67
2023-02-16T16:40:19.770Z,53.30
2023-02-16T16:43:04.566Z,45.10
2023-02-16T16:45:46.492Z,48.10
2023-02-16T16:48:36.331Z,45.97
2023-02-16T16:51:14.955Z,43.13
2023-02-16T16:53:51.740Z,49.03
2023-02-16T16:56:19.172Z,40.90
2023-02-16T16:58:51.273Z,36.87
2023-02-16T17:01:19.156Z,37.03
2023-02-16T17:03:45.922Z,36.47
2023-02-16T17:06:14.054Z,37.20
2023-02-16T17:08:43.973Z,35.50
2023-02-16T17:11:32.808Z,32.30
2023-02-16T17:14:10.167Z,31.30
2023-02-16T17:16:40.759Z,33.27
2023-02-16T17:19:07.435Z,34.33
2023-02-16T17:21:34.081Z,30.77
2023-02-16T17:24:00.687Z,31.77
2023-02-16T17:26:27.430Z,32.33
2023-02-16T17:28:54.264Z,29.97
2023-02-16T17:31:20.972Z,29.33
2023-02-16T17:33:47.622Z,33.80
2023-02-16T17:36:16.141Z,31.80
2023-02-16T17:38:43.440Z,29.07
2023-02-16T17:41:22.228Z,29.47
2023-02-16T17:43:49.328Z,32.10
2023-02-16T17:46:17.103Z,33.83
2023-02-16T17:48:44.133Z,30.53
2023-02-16T17:51:16.874Z,29.97
2023-02-16T17:53:44.850Z,31.93
2023-02-16T17:56:13.914Z,29.63
2023-02-16T17:58:40.986Z,30.23
2023-02-16T18:01:09.678Z,30.50
2023-02-16T18:03:36.338Z,31.10
2023-02-16T18:06:03.147Z,34.00
2023-02-16T18:08:29.881Z,30.87
2023-02-16T18:11:01.873Z,29.40
2023-02-16T18:13:29.908Z,32.80
2023-02-16T18:15:57.258Z,32.73
2023-02-16T18:18:24.169Z,33.87
2023-02-16T18:20:50.746Z,30.50
2023-02-16T18:23:17.375Z,32.63
2023-02-16T18:25:44.108Z,30.53
2023-02-16T18:28:14.991Z,30.87
2023-02-16T18:30:41.971Z,32.23
2023-02-16T18:33:08.606Z,31.23
2023-02-16T18:35:36.475Z,32.40
2023-02-16T18:38:03.546Z,33.33
2023-02-16T18:40:30.419Z,32.07
2023-02-16T18:42:57.092Z,34.33
2023-02-16T18:45:25.553Z,31.37
2023-02-16T18:47:52.341Z,32.23
2023-02-16T18:50:19.057Z,29.40
2023-02-16T18:52:46.037Z,30.73
2023-02-16T18:55:13.173Z,33.30
2023-02-16T18:57:39.847Z,30.13
2023-02-16T19:00:08.607Z,34.33
2023-02-16T19:02:35.533Z,31.50
2023-02-16T19:05:02.674Z,32.80
2023-02-16T19:07:29.409Z,33.70
2023-02-16T19:09:56.045Z,34.40
2023-02-16T19:12:22.698Z,34.40
2023-02-16T19:14:49.413Z,36.60
2023-02-16T19:17:16.139Z,33.40
2023-02-16T19:19:42.850Z,37.40
2023-02-16T19:22:09.717Z,35.30
2023-02-16T19:24:36.739Z,38.37
2023-02-16T19:27:03.440Z,37.07
2023-02-16T19:29:30.106Z,35.23
2023-02-16T19:31:56.883Z,38.73
2023-02-16T19:34:23.529Z,39.70
2023-02-16T19:36:50.986Z,37.93
2023-02-16T19:39:18.101Z,36.27
2023-02-16T19:41:44.765Z,34.77
2023-02-16T19:44:14.069Z,38.20
2023-02-16T19:46:41.814Z,39.87
2023-02-16T19:49:09.247Z,40.10
2023-02-16T19:51:35.859Z,41.47
2023-02-16T19:54:02.548Z,36.67
2023-02-16T19:56:29.225Z,39.53
2023-02-16T19:58:59.037Z,38.67
2023-02-16T20:01:28.086Z,38.10
2023-02-16T20:03:56.654Z,37.17
2023-02-16T20:06:43.643Z,36.20
2023-02-16T20:09:13.453Z,40.73
2023-02-16T20:11:40.808Z,37.33
2023-02-16T20:14:08.553Z,37.60
2023-02-16T20:16:35.361Z,39.13
2023-02-16T20:19:02.332Z,39.07
2023-02-16T20:21:29.845Z,40.47
2023-02-16T20:24:02.551Z,40.37
2023-02-16T20:26:39.246Z,39.57
2023-02-16T20:29:08.449Z,39.10
2023-02-16T20:31:51.012Z,38.63
2023-02-16T20:34:18.068Z,39.67
2023-02-16T20:36:44.876Z,39.33
2023-02-16T20:39:11.483Z,40.60
2023-02-16T20:41:38.389Z,41.20
2023-02-16T20:44:05.919Z,40.83
2023-02-16T20:46:32.787Z,40.93
2023-02-16T20:48:59.565Z,40.57
2023-02-16T20:51:26.505Z,41.07
2023-02-16T20:53:53.111Z,42.03
2023-02-16T20:56:23.014Z,44.60
2023-02-16T20:58:52.212Z,46.83
2023-02-16T21:01:36.975Z,46.23
2023-02-16T21:04:04.575Z,45.63
2023-02-16T21:06:31.264Z,44.40
2023-02-16T21:08:58.293Z,45.87
2023-02-16T21:11:25.578Z,44.40
2023-02-16T21:13:52.560Z,46.07
2023-02-16T21:16:19.216Z,43.20
2023-02-16T21:18:45.938Z,44.03
2023-02-16T21:21:15.453Z,44.47
2023-02-16T21:23:48.203Z,43.73
2023-02-16T21:26:16.083Z,42.10
2023-02-16T21:28:42.881Z,41.93
2023-02-16T21:31:12.992Z,42.43
2023-02-16T21:33:40.099Z,39.77
2023-02-16T21:36:13.815Z,37.97
2023-02-16T21:38:41.885Z,37.87
2023-02-16T21:41:25.162Z,37.07
2023-02-16T21:44:14.094Z,36.23
2023-02-16T21:46:46.168Z,35.67
2023-02-16T21:49:21.535Z,37.13
2023-02-16T21:51:48.378Z,37.80
2023-02-16T21:54:17.851Z,36.67
2023-02-16T21:56:51.306Z,35.03
2023-02-16T21:59:19.789Z,36.20
2023-02-16T22:01:50.804Z,33.30
2023-02-16T22:04:21.597Z,34.00
2023-02-16T22:06:50.355Z,34.47
2023-02-16T22:09:22.189Z,32.53
2023-02-16T22:11:49.347Z,32.43
2023-02-16T22:14:15.960Z,32.47
2023-02-16T22:16:45.029Z,30.67
2023-02-16T22:19:14.198Z,32.07
2023-02-16T22:21:42.923Z,30.57
2023-02-16T22:24:13.437Z,29.90
2023-02-16T22:26:40.350Z,31.00
2023-02-16T22:29:07.898Z,30.50
2023-02-16T22:31:35.680Z,30.43
2023-02-16T22:34:07.522Z,27.93
2023-02-16T22:36:36.448Z,27.00
2023-02-16T22:39:03.760Z,28.43
2023-02-16T22:41:30.451Z,26.47
2023-02-16T22:43:59.556Z,26.77
2023-02-16T22:46:27.309Z,27.47
2023-02-16T22:48:55.275Z,26.13
2023-02-16T22:51:22.354Z,25.67
2023-02-16T22:53:49.106Z,24.70
2023-02-16T22:56:18.089Z,24.03
2023-02-16T22:58:45.497Z,23.73
2023-02-16T23:01:14.900Z,23.80
2023-02-16T23:03:42.663Z,23.17
2023-02-16T23:06:18.523Z,23.50
2023-02-16T23:08:46.383Z,23.53
2023-02-16T23:11:13.579Z,23.17
2023-02-16T23:13:40.177Z,24.67
2023-02-16T23:16:11.226Z,23.30
2023-02-16T23:18:38.276Z,23.60
2023-02-16T23:21:06.965Z,24.03
2023-02-16T23:23:33.698Z,24.43
2023-02-16T23:26:00.360Z,24.07
2023-02-16T23:28:26.973Z,25.83
2023-02-16T23:30:56.321Z,23.67
2023-02-16T23:33:23.579Z,24.40
2023-02-16T23:35:50.524Z,23.50
2023-02-16T23:38:18.281Z,23.30
2023-02-16T23:40:44.959Z,23.23
2023-02-16T23:43:11.594Z,22.33
2023-02-16T23:45:38.739Z,21.87
2023-02-16T23:48:05.518Z,22.17
2023-02-16T23:50:32.137Z,23.27
2023-02-16T23:52:58.730Z,22.10
2023-02-16T23:55:25.396Z,21.53
2023-02-16T23:57:52.041Z,21.73
